Time;durP1;ratioP1;P1;durP2;ratioP2;P2;SDS_P1;SDS_P2;PMS_P1;PMS_P2;Temp;Humidity;BMP_temperature;BMP_pressure;BME280_temperature;BME280_humidity;BME280_pressure;Samples;Min_cycle;Max_cycle;Signal;HPM_P1;HPM_P2
2023/05/04 00:02:20;;;;;;;2.70;2.03;;;16.20;62.30;;;;;;10365285;28;20057;-55
2023/05/04 00:07:20;;;;;;;1.98;1.40;;;16.20;62.20;;;;;;10365531;28;20052;-56
2023/05/04 00:12:21;;;;;;;2.10;1.35;;;16.20;62.20;;;;;;10365390;28;20113;-55
2023/05/04 00:17:22;;;;;;;2.55;1.60;;;16.20;62.30;;;;;;10365117;28;20098;-56
2023/05/04 00:22:22;;;;;;;2.30;1.30;;;16.10;62.20;;;;;;10364808;28;20168;-56
2023/05/04 00:27:23;;;;;;;2.22;1.50;;;16.10;62.20;;;;;;10351208;28;20118;-56
2023/05/04 00:32:24;;;;;;;2.20;1.45;;;16.20;62.20;;;;;;10365670;28;20160;-56
2023/05/04 00:37:24;;;;;;;2.50;1.83;;;16.10;62.10;;;;;;10364764;28;20030;-55
2023/05/04 00:42:25;;;;;;;1.65;1.40;;;16.10;62.20;;;;;;10364514;28;20026;-56
2023/05/04 00:47:26;;;;;;;1.83;1.60;;;16.10;62.10;;;;;;10364179;28;20118;-55
2023/05/04 00:52:27;;;;;;;3.92;1.77;;;16.10;62.10;;;;;;10364255;28;20024;-56
2023/05/04 00:57:29;;;;;;;2.17;1.70;;;16.10;62.10;;;;;;10364256;28;20571;-56
2023/05/04 01:02:30;;;;;;;2.13;1.67;;;16.10;62.10;;;;;;10379177;28;20152;-56
2023/05/04 01:07:48;;;;;;;2.53;1.40;;;16.10;62.10;;;;;;10363860;28;20057;-55
2023/05/04 01:13:11;;;;;;;2.20;1.42;;;16.10;62.10;;;;;;10362189;28;20049;-56
2023/05/04 01:18:12;;;;;;;1.67;1.38;;;16.10;62.10;;;;;;10363757;28;20030;-54
2023/05/04 01:23:12;;;;;;;2.40;1.40;;;16.10;62.70;;;;;;10371427;28;20029;-56
2023/05/04 01:28:21;;;;;;;3.00;1.70;;;16.10;62.20;;;;;;10356913;28;20485;-56
2023/05/04 01:33:22;;;;;;;3.63;1.92;;;16.10;62.10;;;;;;10372513;28;20714;-56
2023/05/04 01:38:23;;;;;;;2.00;1.23;;;16.10;62.10;;;;;;10369234;28;20069;-57
2023/05/04 01:43:24;;;;;;;2.05;1.60;;;16.10;62.10;;;;;;10371200;28;20677;-56
2023/05/04 01:48:25;;;;;;;1.80;1.48;;;16.00;62.10;;;;;;10370463;28;20033;-56
2023/05/04 01:53:25;;;;;;;1.92;1.42;;;16.00;62.10;;;;;;10370514;28;20034;-56
2023/05/04 01:58:26;;;;;;;1.98;1.55;;;16.00;62.10;;;;;;10370310;28;20136;-56
2023/05/04 02:03:27;;;;;;;2.47;1.35;;;16.00;62.10;;;;;;10368992;28;20189;-57
2023/05/04 02:08:27;;;;;;;2.78;1.63;;;16.00;62.10;;;;;;10368565;28;20369;-55
2023/05/04 02:13:28;;;;;;;2.05;1.48;;;16.00;62.10;;;;;;10369641;28;20103;-55
2023/05/04 02:18:29;;;;;;;1.95;1.48;;;16.00;62.10;;;;;;10369619;28;20625;-56
2023/05/04 02:23:29;;;;;;;2.05;1.38;;;16.00;62.10;;;;;;10369591;28;20139;-57
2023/05/04 02:28:30;;;;;;;2.90;1.92;;;16.00;62.10;;;;;;10368842;28;20057;-56
2023/05/04 02:33:31;;;;;;;2.25;1.75;;;16.00;62.10;;;;;;10369125;28;20136;-56
2023/05/04 02:38:32;;;;;;;2.83;1.65;;;16.00;62.70;;;;;;10368571;28;20026;-55
2023/05/04 02:43:32;;;;;;;3.10;1.45;;;16.00;62.10;;;;;;10368686;28;20458;-55
2023/05/04 02:48:33;;;;;;;3.35;1.98;;;16.00;62.10;;;;;;10368511;28;20111;-57
2023/05/04 02:53:34;;;;;;;2.13;1.65;;;16.00;62.10;;;;;;10367733;28;20070;-56
2023/05/04 02:58:34;;;;;;;2.30;1.55;;;15.90;62.10;;;;;;10367857;28;20508;-56
2023/05/04 03:03:35;;;;;;;2.05;1.58;;;15.90;62.10;;;;;;10367680;28;20060;-56
2023/05/04 03:08:36;;;;;;;2.35;1.55;;;15.90;62.00;;;;;;10367776;28;20041;-56
2023/05/04 03:13:36;;;;;;;2.92;1.88;;;15.90;62.00;;;;;;10349544;28;20113;-54
2023/05/04 03:18:37;;;;;;;1.98;1.25;;;15.90;62.00;;;;;;10367602;28;20025;-56
2023/05/04 03:23:38;;;;;;;3.50;1.58;;;15.90;62.10;;;;;;10366588;28;20057;-56
2023/05/04 03:28:38;;;;;;;1.90;1.40;;;15.90;62.10;;;;;;10353458;28;20026;-56
2023/05/04 03:33:39;;;;;;;2.10;1.65;;;15.90;62.20;;;;;;10367881;28;20125;-56
2023/05/04 03:38:41;;;;;;;2.45;1.80;;;15.90;62.20;;;;;;10366461;28;20638;-57
2023/05/04 03:43:41;;;;;;;2.60;1.77;;;15.90;62.20;;;;;;10366088;28;20029;-56
2023/05/04 03:48:42;;;;;;;3.67;1.95;;;15.90;62.20;;;;;;10365742;28;20033;-55
2023/05/04 03:53:43;;;;;;;2.28;1.67;;;15.90;62.20;;;;;;10363153;28;20068;-56
2023/05/04 03:58:43;;;;;;;2.42;1.80;;;15.90;62.20;;;;;;10363425;28;20121;-55
2023/05/04 04:03:44;;;;;;;3.45;1.80;;;15.80;62.10;;;;;;10365070;28;20091;-56
2023/05/04 04:08:45;;;;;;;2.22;1.58;;;15.80;62.20;;;;;;10365550;28;20113;-55
2023/05/04 04:13:45;;;;;;;2.47;1.73;;;15.80;62.10;;;;;;10365375;28;20109;-56
2023/05/04 04:18:46;;;;;;;1.83;1.48;;;15.80;62.20;;;;;;10364926;28;20777;-55
2023/05/04 04:23:47;;;;;;;2.53;1.70;;;15.80;62.20;;;;;;10364641;28;20685;-56
2023/05/04 04:28:49;;;;;;;2.60;1.77;;;15.80;62.30;;;;;;10363612;28;20156;-56
2023/05/04 04:33:50;;;;;;;1.77;1.35;;;15.80;62.20;;;;;;10366274;28;20034;-56
2023/05/04 04:38:51;;;;;;;2.03;1.60;;;15.80;62.20;;;;;;10364412;28;20415;-56
2023/05/04 04:43:51;;;;;;;2.72;1.80;;;15.80;62.20;;;;;;10364698;28;20469;-58
2023/05/04 04:48:54;;;;;;;2.10;1.52;;;15.80;62.30;;;;;;10362968;28;20069;-57
2023/05/04 04:53:55;;;;;;;2.50;1.77;;;15.80;62.30;;;;;;10365013;28;20042;-54
2023/05/04 04:58:55;;;;;;;2.30;1.67;;;15.80;62.20;;;;;;10372784;28;20104;-56
2023/05/04 05:03:56;;;;;;;1.73;1.33;;;15.80;62.20;;;;;;10370812;28;20085;-56
2023/05/04 05:08:57;;;;;;;2.60;1.80;;;15.80;62.30;;;;;;10371962;28;20108;-56
2023/05/04 05:13:58;;;;;;;2.20;1.70;;;15.80;62.30;;;;;;10371743;28;20018;-54
2023/05/04 05:19:00;;;;;;;2.53;1.80;;;15.80;62.30;;;;;;10370502;28;20022;-56
2023/05/04 05:24:00;;;;;;;2.95;2.00;;;15.80;62.30;;;;;;10368469;28;20034;-56
2023/05/04 05:29:01;;;;;;;2.03;1.33;;;15.80;62.30;;;;;;10361507;28;20115;-54
2023/05/04 05:34:02;;;;;;;2.90;2.15;;;15.80;62.40;;;;;;10370778;28;20121;-56
2023/05/04 05:39:03;;;;;;;2.17;1.48;;;15.80;62.40;;;;;;10370620;28;20168;-54
2023/05/04 05:44:04;;;;;;;1.90;1.73;;;15.80;62.40;;;;;;10370720;28;20124;-56
2023/05/04 05:49:06;;;;;;;2.20;1.67;;;15.80;62.40;;;;;;10370766;28;20026;-55
2023/05/04 05:54:06;;;;;;;1.75;1.65;;;15.80;62.40;;;;;;10370139;28;20034;-55
2023/05/04 05:59:07;;;;;;;2.58;1.90;;;15.80;62.40;;;;;;10370199;28;20084;-57
2023/05/04 06:04:08;;;;;;;2.40;1.50;;;15.80;62.40;;;;;;10368483;28;20073;-55
2023/05/04 06:09:09;;;;;;;1.67;1.17;;;15.80;62.40;;;;;;10368373;28;20535;-55
2023/05/04 06:14:10;;;;;;;2.22;1.58;;;15.80;62.50;;;;;;10369733;28;20104;-57
2023/05/04 06:19:11;;;;;;;1.70;1.27;;;15.80;62.50;;;;;;10369524;28;20105;-57
2023/05/04 06:24:11;;;;;;;1.80;1.25;;;15.80;62.50;;;;;;10364535;28;20109;-56
2023/05/04 06:29:12;;;;;;;2.28;1.65;;;15.80;62.60;;;;;;10360316;28;20101;-56
2023/05/04 06:34:15;;;;;;;2.08;1.45;;;15.80;62.60;;;;;;10368561;28;20473;-56
2023/05/04 06:39:16;;;;;;;2.40;1.67;;;15.80;62.60;;;;;;10368935;28;20489;-55
2023/05/04 06:44:17;;;;;;;2.25;1.40;;;15.80;62.60;;;;;;10368606;28;20732;-56
2023/05/04 06:49:18;;;;;;;1.90;1.70;;;15.80;62.70;;;;;;10368910;28;20066;-56
2023/05/04 06:54:18;;;;;;;1.55;1.30;;;15.80;62.60;;;;;;10368076;28;20876;-56
2023/05/04 06:59:19;;;;;;;1.30;1.20;;;15.90;62.80;;;;;;10367785;28;20029;-56
2023/05/04 07:04:22;;;;;;;2.25;1.50;;;15.80;62.90;;;;;;10366462;28;20053;-56
2023/05/04 07:09:22;;;;;;;2.00;1.70;;;15.80;62.80;;;;;;10367684;28;20076;-55
2023/05/04 07:14:23;;;;;;;1.80;1.17;;;15.80;62.80;;;;;;10367291;28;20169;-56
2023/05/04 07:19:24;;;;;;;1.20;1.00;;;15.90;62.90;;;;;;10366474;28;20037;-56
2023/05/04 07:24:29;;;;;;;2.45;1.63;;;15.90;62.90;;;;;;10360170;28;20054;-57
2023/05/04 07:29:29;;;;;;;2.17;1.58;;;15.90;62.90;;;;;;10363670;28;20029;-57
2023/05/04 07:34:30;;;;;;;1.95;1.35;;;15.90;62.90;;;;;;10367055;28;20057;-55
2023/05/04 07:39:35;;;;;;;2.08;1.38;;;15.90;62.80;;;;;;10366529;28;20056;-55
2023/05/04 07:44:35;;;;;;;2.15;1.60;;;16.00;62.80;;;;;;10365950;28;20026;-56
2023/05/04 07:49:36;;;;;;;1.92;1.30;;;16.00;62.70;;;;;;10364546;28;20462;-55
2023/05/04 07:54:37;;;;;;;2.30;1.45;;;16.00;62.80;;;;;;10365870;28;20121;-55
2023/05/04 07:59:37;;;;;;;2.17;1.40;;;16.00;62.80;;;;;;10365599;28;20021;-57
2023/05/04 08:04:38;;;;;;;1.90;1.38;;;16.00;62.80;;;;;;10364844;28;20054;-55
2023/05/04 08:09:39;;;;;;;1.85;1.27;;;16.00;62.80;;;;;;10365355;28;20108;-57
2023/05/04 08:14:39;;;;;;;2.00;1.50;;;16.00;62.90;;;;;;10364502;28;20632;-57
2023/05/04 08:19:40;;;;;;;1.88;1.50;;;16.10;62.90;;;;;;10364821;28;20026;-57
2023/05/04 08:24:41;;;;;;;1.42;1.20;;;16.10;62.90;;;;;;10356466;28;20113;-55
2023/05/04 08:29:41;;;;;;;1.92;1.30;;;16.10;62.90;;;;;;10360493;28;20534;-56
2023/05/04 08:34:42;;;;;;;2.30;1.55;;;16.10;62.80;;;;;;10365901;28;20026;-56
2023/05/04 08:39:43;;;;;;;1.98;1.30;;;16.10;62.80;;;;;;10363291;28;20060;-56
2023/05/04 08:44:44;;;;;;;2.85;1.75;;;16.10;62.90;;;;;;10363401;28;20125;-56
2023/05/04 08:49:44;;;;;;;2.35;1.73;;;16.10;62.90;;;;;;10364231;28;20088;-57
2023/05/04 08:54:46;;;;;;;1.88;1.70;;;16.20;63.00;;;;;;10363808;28;20061;-56
2023/05/04 08:59:51;;;;;;;2.10;1.48;;;16.20;62.90;;;;;;10362834;28;20022;-56
2023/05/04 09:04:52;;;;;;;1.77;1.30;;;16.20;62.90;;;;;;10363484;28;20049;-53
2023/05/04 09:09:55;;;;;;;1.77;1.42;;;16.20;62.90;;;;;;10363906;28;20029;-56
2023/05/04 09:14:57;;;;;;;1.83;1.20;;;16.20;62.90;;;;;;10362532;28;20580;-55
2023/05/04 09:20:02;;;;;;;1.80;1.40;;;16.20;63.00;;;;;;10363429;28;20030;-56
2023/05/04 09:25:11;;;;;;;2.28;1.40;;;16.20;63.00;;;;;;10352137;28;20114;-56
2023/05/04 09:30:12;;;;;;;1.75;1.23;;;16.20;62.90;;;;;;10363951;28;20038;-56
2023/05/04 09:35:15;;;;;;;2.95;1.77;;;16.30;63.00;;;;;;10363571;28;20034;-56
2023/05/04 09:40:15;;;;;;;1.98;1.27;;;16.30;63.00;;;;;;10364736;28;20084;-56
2023/05/04 09:45:16;;;;;;;1.30;1.05;;;16.30;63.00;;;;;;10371017;28;20558;-55
2023/05/04 09:50:21;;;;;;;1.88;1.77;;;16.30;63.10;;;;;;10369026;28;20095;-56
2023/05/04 09:55:23;;;;;;;1.63;1.25;;;16.30;63.00;;;;;;10369399;28;20626;-56
2023/05/04 10:00:24;;;;;;;1.77;1.30;;;16.40;63.00;;;;;;10369093;28;20521;-56
2023/05/04 10:05:25;;;;;;;1.70;1.30;;;16.40;63.00;;;;;;10369012;28;20042;-56
2023/05/04 10:10:26;;;;;;;1.55;1.20;;;16.40;63.10;;;;;;10370113;28;20026;-56
2023/05/04 10:15:27;;;;;;;1.40;1.10;;;16.40;63.00;;;;;;10368217;28;20504;-56
2023/05/04 10:21:14;;;;;;;1.70;1.33;;;16.40;63.00;;;;;;10369164;28;20068;-56
2023/05/04 10:26:46;;;;;;;1.52;1.40;;;16.50;63.00;;;;;;10368254;28;20030;-56
2023/05/04 10:31:47;;;;;;;1.17;1.05;;;16.50;63.00;;;;;;10368706;28;20026;-56
2023/05/04 10:36:48;;;;;;;2.13;1.48;;;16.50;63.00;;;;;;10368758;28;20030;-56
2023/05/04 10:42:06;;;;;;;1.48;1.02;;;16.60;63.00;;;;;;10368913;28;20097;-56
2023/05/04 10:47:07;;;;;;;1.35;1.10;;;16.60;63.00;;;;;;10368528;28;20030;-56
2023/05/04 10:52:17;;;;;;;1.77;1.40;;;16.60;63.00;;;;;;10367445;28;20018;-56
2023/05/04 10:57:17;;;;;;;1.23;1.13;;;16.70;63.00;;;;;;10367876;28;20140;-55
2023/05/04 11:02:22;;;;;;;2.35;1.10;;;16.70;63.00;;;;;;10367511;28;20435;-57
2023/05/04 11:07:36;;;;;;;1.88;0.95;;;16.70;63.00;;;;;;10356294;28;20050;-56
2023/05/04 11:12:37;;;;;;;1.38;1.08;;;16.70;63.00;;;;;;10367765;28;20335;-57
2023/05/04 11:17:49;;;;;;;2.38;1.20;;;16.80;63.10;;;;;;10365536;28;20040;-56
2023/05/04 11:22:51;;;;;;;1.60;0.90;;;16.80;63.20;;;;;;10366018;28;20341;-56
2023/05/04 11:27:53;;;;;;;1.55;1.30;;;16.80;63.10;;;;;;10366739;28;20058;-56
2023/05/04 11:32:56;;;;;;;1.55;1.30;;;16.80;63.20;;;;;;10367789;28;20030;-55
2023/05/04 11:37:56;;;;;;;1.90;1.20;;;16.80;63.20;;;;;;10366647;28;20110;-56
2023/05/04 11:42:59;;;;;;;1.65;1.08;;;16.80;63.20;;;;;;10365556;28;20026;-55
2023/05/04 11:48:00;;;;;;;1.13;1.00;;;16.90;63.20;;;;;;10365286;28;20030;-56
2023/05/04 11:53:11;;;;;;;2.15;1.50;;;16.90;63.20;;;;;;10365584;28;20037;-57
2023/05/04 11:58:11;;;;;;;1.52;0.80;;;16.90;63.10;;;;;;10365859;28;20033;-57
2023/05/04 12:03:22;;;;;;;2.25;1.20;;;17.00;63.20;;;;;;10364925;28;20078;-57
2023/05/04 12:08:33;;;;;;;1.55;1.00;;;17.00;63.10;;;;;;10363725;28;20032;-56
2023/05/04 12:13:34;;;;;;;2.20;1.20;;;17.10;63.70;;;;;;10365369;28;20101;-56
2023/05/04 12:18:35;;;;;;;2.40;1.10;;;17.10;63.20;;;;;;10364505;28;20083;-56
2023/05/04 12:23:37;;;;;;;1.83;1.20;;;17.10;63.10;;;;;;10364788;28;20017;-55
2023/05/04 12:28:39;;;;;;;0.98;0.82;;;17.10;63.10;;;;;;10364114;28;20041;-54
2023/05/04 12:33:40;;;;;;;2.78;1.05;;;17.10;63.10;;;;;;10364614;28;20039;-56
2023/05/04 12:38:41;;;;;;;1.98;1.30;;;17.20;63.20;;;;;;10364258;28;20018;-56
2023/05/04 12:43:42;;;;;;;1.58;1.02;;;17.20;63.20;;;;;;10364002;28;20034;-56
2023/05/04 12:48:42;;;;;;;1.30;1.05;;;17.20;63.10;;;;;;10363446;28;20397;-56
2023/05/04 12:53:43;;;;;;;1.45;1.10;;;17.20;63.10;;;;;;10363520;28;20030;-56
2023/05/04 12:58:44;;;;;;;1.30;0.80;;;17.30;63.10;;;;;;10363800;28;20427;-55
2023/05/04 13:03:44;;;;;;;1.50;1.15;;;17.30;63.20;;;;;;10362845;28;20458;-57
2023/05/04 13:08:46;;;;;;;2.42;1.20;;;17.30;63.10;;;;;;10364252;28;20049;-56
2023/05/04 13:13:46;;;;;;;1.65;1.08;;;17.40;63.10;;;;;;10362268;28;20037;-55
2023/05/04 13:18:47;;;;;;;1.60;1.00;;;17.40;63.00;;;;;;10370634;28;20037;-55
2023/05/04 13:23:48;;;;;;;1.98;1.23;;;17.40;63.10;;;;;;10369188;28;20084;-55
2023/05/04 13:28:50;;;;;;;1.70;1.10;;;17.40;63.20;;;;;;10374573;28;20121;-56
2023/05/04 13:33:51;;;;;;;1.95;1.20;;;17.30;63.20;;;;;;10371727;28;20499;-56
2023/05/04 13:38:51;;;;;;;1.38;1.13;;;17.30;63.30;;;;;;10369613;28;20117;-55
2023/05/04 13:43:52;;;;;;;1.70;1.20;;;17.30;63.30;;;;;;10370807;28;20425;-56
2023/05/04 13:48:53;;;;;;;1.63;1.00;;;17.40;63.30;;;;;;10370453;28;20799;-56
2023/05/04 13:53:54;;;;;;;1.25;0.95;;;17.40;63.40;;;;;;10369132;28;20113;-55
2023/05/04 13:58:54;;;;;;;1.02;0.90;;;17.40;63.30;;;;;;10369145;28;20470;-56
2023/05/04 14:03:56;;;;;;;1.85;1.10;;;17.40;63.30;;;;;;10369169;28;20130;-55
2023/05/04 14:08:56;;;;;;;2.60;1.05;;;17.40;63.40;;;;;;10369871;28;20030;-54
2023/05/04 14:13:57;;;;;;;1.88;1.25;;;17.40;63.30;;;;;;10368927;28;20076;-55
2023/05/04 14:18:58;;;;;;;2.40;1.52;;;17.40;63.30;;;;;;10369527;28;20105;-55
2023/05/04 14:23:58;;;;;;;2.80;1.45;;;17.40;63.30;;;;;;10369134;28;20088;-56
2023/05/04 14:28:59;;;;;;;1.52;1.13;;;17.40;63.40;;;;;;10367879;28;20109;-55
2023/05/04 14:34:00;;;;;;;2.13;1.35;;;17.40;63.40;;;;;;10370223;28;20457;-56
2023/05/04 14:39:01;;;;;;;2.00;1.27;;;17.40;63.40;;;;;;10368938;28;20030;-57
2023/05/04 14:44:05;;;;;;;2.50;1.42;;;17.40;63.30;;;;;;10368345;28;20022;-57
2023/05/04 14:49:06;;;;;;;1.92;1.02;;;17.40;63.30;;;;;;10368024;28;20693;-57
2023/05/04 14:54:07;;;;;;;2.75;1.38;;;17.40;63.40;;;;;;10368019;28;20072;-57
2023/05/04 14:59:07;;;;;;;1.88;1.13;;;17.40;63.50;;;;;;10368000;28;20576;-56
2023/05/04 15:04:08;;;;;;;1.27;0.95;;;17.40;63.50;;;;;;10367456;28;20081;-54
2023/05/04 15:09:09;;;;;;;2.08;1.30;;;17.40;63.50;;;;;;10367129;28;20049;-54
2023/05/04 15:14:09;;;;;;;2.03;1.13;;;17.30;63.50;;;;;;10366723;28;20038;-56
2023/05/04 15:19:10;;;;;;;1.58;1.10;;;17.30;63.50;;;;;;10365096;28;20463;-57
2023/05/04 15:24:11;;;;;;;1.60;1.10;;;17.30;63.60;;;;;;10366996;28;20018;-55
2023/05/04 15:29:12;;;;;;;2.30;1.40;;;17.30;63.50;;;;;;10364525;28;20229;-56
2023/05/04 15:34:13;;;;;;;2.45;1.50;;;17.30;63.60;;;;;;10367598;28;20033;-56
2023/05/04 15:39:14;;;;;;;1.42;1.00;;;17.30;63.60;;;;;;10365968;28;20109;-56
2023/05/04 15:44:15;;;;;;;2.20;1.30;;;17.30;63.60;;;;;;10365697;28;20018;-57
2023/05/04 15:49:15;;;;;;;1.75;1.27;;;17.30;63.70;;;;;;10366201;28;20022;-54
2023/05/04 15:54:16;;;;;;;1.67;1.13;;;17.30;63.60;;;;;;10365946;28;20037;-56
2023/05/04 15:59:17;;;;;;;1.15;0.77;;;17.30;63.60;;;;;;10364261;28;20097;-56
2023/05/04 16:04:17;;;;;;;1.52;1.20;;;17.30;63.60;;;;;;10362436;28;20078;-54
2023/05/04 16:09:19;;;;;;;1.98;1.23;;;17.30;63.70;;;;;;10363555;28;20101;-56
2023/05/04 16:14:20;;;;;;;1.42;0.93;;;17.30;63.70;;;;;;10363146;28;20034;-55
2023/05/04 16:19:21;;;;;;;1.17;0.93;;;17.30;63.70;;;;;;10362932;28;20432;-56
2023/05/04 16:24:22;;;;;;;1.05;0.70;;;17.30;63.60;;;;;;10361416;28;20028;-56
2023/05/04 16:29:23;;;;;;;2.17;1.08;;;17.30;63.60;;;;;;10363491;28;20033;-55
2023/05/04 16:34:23;;;;;;;1.83;1.30;;;17.30;63.50;;;;;;10365150;28;20654;-55
2023/05/04 16:39:33;;;;;;;1.33;1.10;;;17.40;63.50;;;;;;10364558;28;20083;-55
2023/05/04 16:44:33;;;;;;;2.42;1.20;;;17.40;63.40;;;;;;10364385;28;20114;-53
2023/05/04 16:49:34;;;;;;;2.13;1.67;;;17.40;63.50;;;;;;10363628;28;20650;-56
2023/05/04 16:54:34;;;;;;;1.02;0.85;;;17.40;63.50;;;;;;10363506;28;20072;-54
2023/05/04 16:59:35;;;;;;;1.85;1.33;;;17.40;63.40;;;;;;10363751;28;20049;-56
2023/05/04 17:04:36;;;;;;;2.10;1.52;;;17.40;63.50;;;;;;10363804;28;20081;-55
2023/05/04 17:09:36;;;;;;;1.60;1.10;;;17.40;63.60;;;;;;10362724;28;20338;-56
2023/05/04 17:14:37;;;;;;;1.98;1.20;;;17.40;63.50;;;;;;10363175;28;20664;-56
2023/05/04 17:19:40;;;;;;;1.52;1.40;;;17.30;63.50;;;;;;10363579;28;20113;-56
2023/05/04 17:24:40;;;;;;;1.52;1.23;;;17.40;63.60;;;;;;10355196;28;20026;-56
2023/05/04 17:29:42;;;;;;;1.50;1.40;;;17.40;63.60;;;;;;10373975;28;20022;-56
2023/05/04 17:34:43;;;;;;;1.50;1.20;;;17.40;63.60;;;;;;10332513;28;20026;-54
2023/05/04 17:39:45;;;;;;;1.30;0.93;;;17.40;63.50;;;;;;10363181;28;20709;-56
2023/05/04 17:44:46;;;;;;;1.42;1.13;;;17.40;63.50;;;;;;10363181;28;20026;-55
2023/05/04 17:49:47;;;;;;;1.73;1.33;;;17.40;63.50;;;;;;10363956;28;20025;-56
2023/05/04 17:54:47;;;;;;;2.13;1.20;;;17.30;63.60;;;;;;10361268;28;20048;-56
2023/05/04 17:59:48;;;;;;;1.60;1.27;;;17.30;63.60;;;;;;10362807;28;20429;-56
2023/05/04 18:04:49;;;;;;;1.35;1.08;;;17.30;63.60;;;;;;10369403;28;20050;-57
2023/05/04 18:09:49;;;;;;;2.03;1.33;;;17.30;63.80;;;;;;10369979;28;20077;-56
2023/05/04 18:14:52;;;;;;;2.28;1.48;;;17.30;63.80;;;;;;10368607;28;20177;-56
2023/05/04 18:19:53;;;;;;;1.70;1.25;;;17.20;63.90;;;;;;10369471;28;20018;-56
2023/05/04 18:24:54;;;;;;;2.35;1.50;;;17.20;64.00;;;;;;10359004;28;20058;-56
2023/05/04 18:29:55;;;;;;;2.00;1.45;;;17.20;64.00;;;;;;10365939;28;20445;-57
2023/05/04 18:34:56;;;;;;;1.98;1.52;;;17.20;64.00;;;;;;10369694;28;20038;-57
2023/05/04 18:39:58;;;;;;;1.70;1.20;;;17.20;63.90;;;;;;10368775;28;20022;-55
2023/05/04 18:44:58;;;;;;;2.22;1.15;;;17.20;64.00;;;;;;10368811;28;20018;-55
2023/05/04 18:50:00;;;;;;;1.75;1.10;;;17.20;64.00;;;;;;10368199;28;20018;-57
2023/05/04 18:55:00;;;;;;;1.90;1.50;;;17.10;63.90;;;;;;10368567;28;20073;-56
2023/05/04 19:00:01;;;;;;;1.70;1.15;;;17.10;63.90;;;;;;10366612;28;20101;-57
2023/05/04 19:05:02;;;;;;;1.58;1.02;;;17.10;64.00;;;;;;10367749;28;20057;-55
2023/05/04 19:10:03;;;;;;;2.20;1.15;;;17.10;64.10;;;;;;10367465;28;20022;-54
2023/05/04 19:15:05;;;;;;;1.58;1.13;;;17.10;64.10;;;;;;10366096;28;20092;-56
2023/05/04 19:20:07;;;;;;;1.92;1.15;;;17.10;64.00;;;;;;10367397;28;20025;-54
2023/05/04 19:25:09;;;;;;;2.35;1.35;;;17.10;64.10;;;;;;10354971;28;20396;-56
2023/05/04 19:30:10;;;;;;;1.60;1.20;;;17.10;64.10;;;;;;10366711;28;20018;-57
2023/05/04 19:35:13;;;;;;;1.65;1.10;;;17.10;64.20;;;;;;10366669;28;20076;-58
2023/05/04 19:40:13;;;;;;;1.50;1.15;;;17.10;64.10;;;;;;10366005;28;20429;-57
2023/05/04 19:45:14;;;;;;;1.70;1.10;;;17.10;64.10;;;;;;10366447;28;20100;-56
2023/05/04 19:50:16;;;;;;;1.50;1.17;;;17.10;64.10;;;;;;10366453;28;20029;-56
2023/05/04 19:55:17;;;;;;;2.42;1.40;;;17.10;64.20;;;;;;10365403;28;20026;-55
2023/05/04 20:00:18;;;;;;;2.55;1.40;;;17.10;64.20;;;;;;10365636;28;20025;-56
2023/05/04 20:05:19;;;;;;;1.85;1.13;;;17.00;64.20;;;;;;10364008;28;20049;-55
2023/05/04 20:10:20;;;;;;;1.88;1.33;;;17.10;64.20;;;;;;10365740;28;20017;-56
2023/05/04 20:15:21;;;;;;;1.85;1.40;;;17.10;64.10;;;;;;10365357;28;20034;-55
2023/05/04 20:20:21;;;;;;;2.67;1.27;;;17.00;64.00;;;;;;10363854;28;20147;-57
2023/05/04 20:25:22;;;;;;;2.15;1.40;;;17.10;64.10;;;;;;10360026;28;20056;-56
2023/05/04 20:30:26;;;;;;;1.52;1.13;;;17.00;64.10;;;;;;10366360;28;20033;-57
2023/05/04 20:35:27;;;;;;;2.03;1.40;;;17.00;64.00;;;;;;10364334;28;20026;-56
2023/05/04 20:40:28;;;;;;;1.90;1.13;;;17.00;64.10;;;;;;10364343;28;20036;-56
2023/05/04 20:45:29;;;;;;;1.77;1.17;;;17.00;64.00;;;;;;10363200;28;20113;-57
2023/05/04 20:50:30;;;;;;;1.75;1.10;;;17.00;64.10;;;;;;10364334;28;20033;-54
2023/05/04 20:55:31;;;;;;;1.98;1.40;;;17.00;64.10;;;;;;10364124;28;20706;-57
2023/05/04 21:00:32;;;;;;;2.38;1.52;;;17.00;64.00;;;;;;10364295;28;20018;-56
2023/05/04 21:05:36;;;;;;;2.30;1.38;;;17.10;64.10;;;;;;10364131;28;20041;-57
2023/05/04 21:10:38;;;;;;;2.08;1.40;;;17.00;64.00;;;;;;10362734;28;20033;-56
2023/05/04 21:15:38;;;;;;;1.40;1.20;;;17.00;63.90;;;;;;10363743;28;20073;-57
2023/05/04 21:20:39;;;;;;;2.78;1.63;;;17.00;64.00;;;;;;10363989;28;20406;-55
2023/05/04 21:25:40;;;;;;;2.08;1.48;;;17.00;64.00;;;;;;10350931;28;20109;-56
2023/05/04 21:30:41;;;;;;;2.20;1.58;;;17.00;64.00;;;;;;10362800;28;20109;-55
2023/05/04 21:35:41;;;;;;;2.92;1.73;;;17.00;64.00;;;;;;10364253;28;20200;-54
2023/05/04 21:40:42;;;;;;;2.60;1.65;;;17.00;63.90;;;;;;10371067;28;20676;-55
2023/05/04 21:45:42;;;;;;;2.28;1.75;;;17.00;63.90;;;;;;10371033;28;20081;-55
2023/05/04 21:50:43;;;;;;;2.20;1.75;;;17.00;63.80;;;;;;10370907;28;20056;-57
2023/05/04 21:55:44;;;;;;;2.15;1.48;;;17.00;63.60;;;;;;10339907;28;20823;-57
2023/05/04 22:00:45;;;;;;;2.35;1.52;;;17.00;63.70;;;;;;10369097;28;20044;-56
2023/05/04 22:05:54;;;;;;;2.40;1.70;;;17.00;63.70;;;;;;10369963;28;20442;-57
2023/05/04 22:10:56;;;;;;;2.87;1.57;;;17.00;63.70;;;;;;10370143;28;20169;-56
2023/05/04 22:15:57;;;;;;;2.38;1.60;;;17.00;63.70;;;;;;10369809;28;20389;-55
2023/05/04 22:20:57;;;;;;;1.83;1.50;;;17.00;63.80;;;;;;10368535;28;20464;-56
2023/05/04 22:25:58;;;;;;;2.25;1.83;;;17.00;63.80;;;;;;10369172;28;20034;-57
2023/05/04 22:30:59;;;;;;;2.03;1.48;;;17.00;63.80;;;;;;10370765;28;20030;-55
2023/05/04 22:36:00;;;;;;;2.50;1.60;;;17.00;63.80;;;;;;10369077;28;20556;-56
2023/05/04 22:41:01;;;;;;;2.20;1.60;;;17.00;63.80;;;;;;10368965;28;20041;-54
2023/05/04 22:46:01;;;;;;;2.17;1.95;;;17.00;63.70;;;;;;10368664;28;20032;-55
2023/05/04 22:51:02;;;;;;;2.30;1.58;;;17.00;63.90;;;;;;10368331;28;20026;-54
2023/05/04 22:56:03;;;;;;;2.10;1.60;;;17.00;63.80;;;;;;10366938;28;20061;-56
2023/05/04 23:01:09;;;;;;;2.00;1.60;;;17.00;63.90;;;;;;10367941;28;20066;-56
2023/05/04 23:06:10;;;;;;;1.58;1.20;;;17.00;63.90;;;;;;10367775;28;20069;-57
2023/05/04 23:11:11;;;;;;;2.30;1.95;;;17.00;63.90;;;;;;10367994;28;20057;-55
2023/05/04 23:16:12;;;;;;;2.10;1.50;;;17.00;63.90;;;;;;10367288;28;20034;-56
2023/05/04 23:21:12;;;;;;;2.90;1.77;;;17.00;64.10;;;;;;10367254;28;20022;-54
2023/05/04 23:26:13;;;;;;;2.38;1.50;;;17.00;64.00;;;;;;10366325;28;20030;-54
2023/05/04 23:31:14;;;;;;;2.75;1.67;;;17.00;63.80;;;;;;10366656;28;20033;-57
2023/05/04 23:36:15;;;;;;;2.08;1.48;;;17.00;64.00;;;;;;10366918;28;20046;-57
2023/05/04 23:41:15;;;;;;;2.90;1.90;;;17.00;64.10;;;;;;10364980;28;20076;-56
2023/05/04 23:46:16;;;;;;;1.98;1.48;;;17.00;64.10;;;;;;10366116;28;20740;-56
2023/05/04 23:51:18;;;;;;;2.33;1.65;;;17.00;64.00;;;;;;10365987;28;20017;-54
2023/05/04 23:56:18;;;;;;;1.98;1.40;;;17.00;64.10;;;;;;10365826;28;20038;-56
